首页
METAR-TAF:

METAR-TAF

机场 :

石油平台

J6-a, 荷兰

纬度: 53-49-27N, 经度: 2-56-43E, 海拔: 34米

当前天气观测

该预报发布于33分钟前的00:55 UTC
风速16节,风向西转西南
温度 13°C
湿度 67%
气压 1004 hPa
能见度10公里或以上

METAR: EHJA 170055Z AUTO 25016KT 9999 FEW024/// 13/07 Q1004 W///H///

时间: 03:28 (01:28 UTC)


TAF: 丢失

超过4000个机场的气象观测和天气预报(METAR&TAF报告)。

可查询的气象台以黄色和红色小点在地图上表示。

将鼠标移到小点上方,可查看气象台名称。

然后点击查看天气观测和预报。

如需切换地图:点击带黑十字的绿色按钮放大地图;点击带横线的绿色按钮缩小地图;或者点击绿色箭头查看邻近地区的地图。


METAR-TAF: